Terminal Aerodrome Forecast
Issued by NWS Nashville, TN

Home | Current Version | Previous Version | Text Only | Print | Product List | Glossary On
Versions: 1 2 3 4 5 6 7 8 9 10 11 12 13 14 15 16 17 18 19 20 21 22
000
FTUS44 KOHX 101700
TAFBNA
TAF
KBNA 101725Z 1018/1118 36007KT P6SM SCT050
     FM110200 01004KT P6SM SKC
      TEMPO 1110/1112 5SM BR
     FM111400 06005KT P6SM SCT035=

USA.gov is the U.S. government's official web portal to all federal, state and local government web resources and services.